Time;durP1;ratioP1;P1;durP2;ratioP2;P2;SDS_P1;SDS_P2;PMS_P1;PMS_P2;Temp;Humidity;BMP_temperature;BMP_pressure;BME280_temperature;BME280_humidity;BME280_pressure;Samples;Min_cycle;Max_cycle;Signal;HPM_P1;HPM_P2
2022/08/06 00:02:25;;;;;;;1.88;1.25;;;27.10;47.40;;;;;;5042306;28;20480;-62
2022/08/06 00:04:59;;;;;;;1.30;1.30;;;27.00;47.30;;;;;;5045956;28;20051;-62
2022/08/06 00:07:27;;;;;;;1.27;1.27;;;27.00;47.30;;;;;;5046649;28;20257;-62
2022/08/06 00:10:12;;;;;;;1.70;1.60;;;27.00;47.40;;;;;;5046741;28;20063;-62
2022/08/06 00:12:40;;;;;;;1.30;1.30;;;27.00;47.40;;;;;;5046706;28;20037;-61
2022/08/06 00:15:08;;;;;;;2.38;1.70;;;27.00;47.50;;;;;;5045571;28;20048;-61
2022/08/06 00:17:41;;;;;;;1.58;1.50;;;27.00;47.50;;;;;;5046998;28;20352;-61
2022/08/06 00:20:09;;;;;;;1.40;1.40;;;27.00;47.50;;;;;;5046300;28;20482;-62
2022/08/06 00:22:37;;;;;;;1.40;1.30;;;27.00;47.60;;;;;;5047178;28;20052;-61
2022/08/06 00:25:08;;;;;;;1.40;1.40;;;27.00;47.60;;;;;;5044773;28;20213;-61
2022/08/06 00:27:37;;;;;;;1.88;1.77;;;27.00;47.60;;;;;;5044946;28;20072;-61
2022/08/06 00:30:06;;;;;;;1.30;1.30;;;27.00;47.60;;;;;;5046755;28;20122;-61
2022/08/06 00:32:49;;;;;;;1.27;1.27;;;27.00;47.60;;;;;;5043982;28;20055;-61
2022/08/06 00:35:20;;;;;;;1.52;1.45;;;27.00;47.70;;;;;;5043440;28;20131;-61
2022/08/06 00:37:55;;;;;;;1.50;1.40;;;26.90;47.60;;;;;;5046211;28;20041;-61
2022/08/06 00:40:29;;;;;;;2.78;1.60;;;26.90;47.70;;;;;;5044824;28;20144;-61
2022/08/06 00:42:59;;;;;;;1.50;1.40;;;27.00;47.80;;;;;;5046507;28;20052;-61
2022/08/06 00:45:33;;;;;;;1.23;1.23;;;27.00;47.80;;;;;;5044958;28;20056;-61
2022/08/06 00:48:08;;;;;;;1.88;1.77;;;27.00;47.80;;;;;;5045350;28;20510;-61
2022/08/06 00:50:55;;;;;;;1.65;1.55;;;27.00;47.80;;;;;;5045370;28;20052;-62
2022/08/06 00:53:22;;;;;;;1.25;1.25;;;26.90;47.80;;;;;;5046695;28;20052;-61
2022/08/06 00:55:49;;;;;;;1.25;1.23;;;27.00;47.90;;;;;;5046231;28;20106;-61
2022/08/06 00:58:26;;;;;;;1.42;1.38;;;26.90;47.80;;;;;;5045705;28;20052;-61
2022/08/06 01:00:53;;;;;;;1.48;1.38;;;26.90;47.80;;;;;;5045828;28;20110;-61
2022/08/06 01:03:20;;;;;;;1.50;1.40;;;26.90;47.90;;;;;;5046183;28;20048;-61
2022/08/06 01:06:07;;;;;;;1.42;1.42;;;26.90;47.90;;;;;;5041557;28;20566;-61
2022/08/06 01:08:55;;;;;;;1.23;1.23;;;26.90;47.90;;;;;;5045459;28;20045;-61
2022/08/06 01:11:24;;;;;;;1.57;1.40;;;26.90;47.90;;;;;;5045067;28;20342;-61
2022/08/06 01:13:53;;;;;;;1.33;1.33;;;26.90;47.90;;;;;;5045642;28;20045;-62
2022/08/06 01:16:59;;;;;;;1.60;1.50;;;26.90;47.90;;;;;;5046131;28;20132;-61
2022/08/06 01:20:00;;;;;;;1.88;1.77;;;26.90;48.00;;;;;;5045674;28;20452;-61
2022/08/06 01:23:18;;;;;;;2.10;1.90;;;26.80;47.90;;;;;;5046171;28;20130;-61
2022/08/06 01:26:20;;;;;;;1.70;1.60;;;26.80;47.90;;;;;;5044956;28;20048;-61
2022/08/06 01:29:24;;;;;;;2.05;1.92;;;26.90;48.00;;;;;;5044955;28;20053;-61
2022/08/06 01:32:09;;;;;;;1.88;1.77;;;26.80;48.00;;;;;;5044598;28;20048;-61
2022/08/06 01:35:06;;;;;;;1.77;1.67;;;26.90;48.10;;;;;;5044970;28;20409;-61
2022/08/06 01:37:50;;;;;;;1.60;1.50;;;26.80;48.00;;;;;;5026458;28;20246;-61
2022/08/06 01:40:23;;;;;;;1.48;1.45;;;26.80;48.10;;;;;;5043742;28;20072;-61
2022/08/06 01:42:54;;;;;;;1.40;1.30;;;26.80;48.10;;;;;;5043835;28;20110;-61
2022/08/06 01:45:29;;;;;;;1.88;1.77;;;26.80;48.10;;;;;;5047764;28;20041;-61
2022/08/06 01:48:17;;;;;;;1.63;1.52;;;26.80;48.10;;;;;;5048349;28;20091;-61
2022/08/06 01:50:49;;;;;;;1.65;1.58;;;26.80;48.20;;;;;;5047575;28;20079;-61
2022/08/06 01:53:23;;;;;;;1.52;1.42;;;26.80;48.20;;;;;;5048458;28;20053;-61
2022/08/06 01:56:11;;;;;;;1.92;1.83;;;26.80;48.20;;;;;;5046840;28;20110;-61
2022/08/06 01:58:49;;;;;;;1.88;1.77;;;26.80;48.20;;;;;;5046666;28;20091;-61
2022/08/06 02:01:19;;;;;;;1.70;1.60;;;26.80;48.20;;;;;;5047853;28;20529;-62
2022/08/06 02:03:47;;;;;;;;;;;26.80;48.30;;;;;;5047813;28;20486;-61
2022/08/06 02:06:25;;;;;;;1.30;1.30;;;26.70;48.20;;;;;;5047885;28;19925;-61
2022/08/06 02:09:00;;;;;;;1.55;1.45;;;26.80;48.30;;;;;;5043458;28;20052;-61
2022/08/06 02:11:59;;;;;;;1.50;1.40;;;26.80;48.40;;;;;;5033819;28;20088;-61
2022/08/06 02:14:36;;;;;;;1.60;1.50;;;26.80;48.40;;;;;;5047911;28;20475;-61
2022/08/06 02:17:10;;;;;;;1.73;1.63;;;26.70;48.40;;;;;;5048025;28;20517;-61
2022/08/06 02:19:46;;;;;;;1.60;1.40;;;26.70;48.40;;;;;;5047493;28;20064;-61
2022/08/06 02:22:37;;;;;;;1.67;1.58;;;26.70;48.40;;;;;;5046893;28;20487;-62
2022/08/06 02:25:11;;;;;;;1.98;1.88;;;26.70;48.40;;;;;;5046491;28;20051;-61
2022/08/06 02:27:50;;;;;;;1.75;1.65;;;26.70;48.40;;;;;;5046118;28;20056;-61
2022/08/06 02:30:31;;;;;;;2.05;1.83;;;26.70;48.50;;;;;;5047339;28;20049;-62
2022/08/06 02:33:04;;;;;;;1.75;1.65;;;26.70;48.50;;;;;;5047704;28;20146;-61
2022/08/06 02:35:52;;;;;;;1.50;1.40;;;26.70;48.50;;;;;;5047625;28;20383;-61
2022/08/06 02:38:38;;;;;;;1.90;1.80;;;26.70;48.50;;;;;;5047453;28;20135;-61
2022/08/06 02:41:30;;;;;;;1.40;1.40;;;26.70;48.50;;;;;;5042937;28;20041;-61
2022/08/06 02:44:16;;;;;;;1.73;1.63;;;26.70;48.50;;;;;;5047540;28;20057;-61
2022/08/06 02:46:49;;;;;;;2.22;2.13;;;26.70;48.50;;;;;;5046648;28;20110;-61
2022/08/06 02:49:21;;;;;;;1.55;1.48;;;26.70;48.60;;;;;;5047922;28;20110;-61
2022/08/06 02:52:03;;;;;;;1.80;1.70;;;26.70;48.60;;;;;;5046275;28;20049;-61
2022/08/06 02:54:56;;;;;;;1.90;1.80;;;26.70;48.60;;;;;;5047440;28;20495;-61
2022/08/06 02:57:30;;;;;;;1.80;1.70;;;26.70;48.60;;;;;;5045324;28;20409;-61
2022/08/06 03:00:18;;;;;;;1.80;1.70;;;26.70;48.60;;;;;;5046477;28;20560;-61
2022/08/06 03:02:59;;;;;;;1.88;1.77;;;26.70;48.60;;;;;;5047349;28;20040;-61
2022/08/06 03:05:28;;;;;;;1.92;1.83;;;26.70;48.70;;;;;;5046843;28;20049;-61
2022/08/06 03:08:19;;;;;;;1.92;1.83;;;26.70;48.60;;;;;;5047474;28;20576;-61
2022/08/06 03:10:54;;;;;;;1.77;1.67;;;26.70;48.70;;;;;;5044904;28;20060;-61
2022/08/06 03:13:22;;;;;;;1.70;1.60;;;26.70;48.70;;;;;;5042452;28;20049;-63
2022/08/06 03:15:58;;;;;;;1.67;1.60;;;26.70;48.70;;;;;;5045784;28;20429;-61
2022/08/06 03:18:29;;;;;;;1.52;1.52;;;26.60;48.60;;;;;;5046671;28;20095;-61
2022/08/06 03:20:57;;;;;;;1.75;1.65;;;26.60;48.70;;;;;;5046218;28;20345;-62
2022/08/06 03:23:25;;;;;;;2.17;1.90;;;26.60;48.70;;;;;;5046090;28;20505;-62
2022/08/06 03:25:55;;;;;;;1.42;1.42;;;26.60;48.70;;;;;;5046273;28;20041;-61
2022/08/06 03:28:33;;;;;;;1.52;1.52;;;26.60;48.70;;;;;;5046379;28;20049;-61
2022/08/06 03:31:03;;;;;;;1.88;1.77;;;26.60;48.70;;;;;;5046406;28;20488;-61
2022/08/06 03:33:32;;;;;;;1.98;1.88;;;26.60;48.70;;;;;;5045401;28;20049;-61
2022/08/06 03:36:21;;;;;;;1.60;1.60;;;26.60;48.70;;;;;;5046376;28;20428;-61
2022/08/06 03:39:05;;;;;;;1.92;1.83;;;26.60;48.70;;;;;;5046445;28;20493;-61
2022/08/06 03:41:38;;;;;;;1.50;1.50;;;26.60;48.80;;;;;;5045551;28;20041;-61
2022/08/06 03:44:25;;;;;;;1.67;1.60;;;26.60;48.80;;;;;;5041876;28;20128;-61
2022/08/06 03:47:08;;;;;;;1.52;1.50;;;26.60;48.80;;;;;;5044406;28;20045;-61
2022/08/06 03:49:48;;;;;;;1.85;1.75;;;26.60;48.80;;;;;;5046520;28;20154;-61
2022/08/06 03:52:25;;;;;;;1.90;1.80;;;26.50;48.80;;;;;;5045228;28;20053;-61
2022/08/06 03:54:57;;;;;;;1.80;1.70;;;26.60;48.80;;;;;;5046342;28;20236;-61
2022/08/06 03:57:39;;;;;;;1.48;1.48;;;26.60;48.80;;;;;;5045352;28;20072;-61
2022/08/06 04:00:16;;;;;;;2.25;2.05;;;26.60;48.80;;;;;;5045415;28;20041;-61
2022/08/06 04:02:57;;;;;;;1.80;1.70;;;26.60;48.80;;;;;;5045640;28;20439;-61
2022/08/06 04:05:30;;;;;;;1.83;1.73;;;26.60;48.80;;;;;;5045202;28;20061;-61
2022/08/06 04:08:02;;;;;;;1.70;1.60;;;26.60;48.80;;;;;;5028279;28;20480;-61
2022/08/06 04:10:38;;;;;;;2.13;2.03;;;26.70;48.90;;;;;;5044756;28;20516;-61
2022/08/06 04:13:11;;;;;;;1.88;1.77;;;26.60;48.80;;;;;;5045963;28;20052;-62
2022/08/06 04:15:58;;;;;;;1.92;1.83;;;26.70;48.80;;;;;;5039302;28;20135;-61
2022/08/06 04:18:32;;;;;;;1.80;1.70;;;26.70;48.80;;;;;;5045330;28;20368;-61
2022/08/06 04:21:19;;;;;;;2.17;1.92;;;26.70;48.70;;;;;;5045936;28;20057;-62
2022/08/06 04:24:06;;;;;;;1.70;1.60;;;26.70;48.70;;;;;;5044884;28;20087;-61
2022/08/06 04:26:36;;;;;;;;;;;26.70;48.70;;;;;;5046114;28;20229;-61
2022/08/06 04:29:08;;;;;;;1.40;1.40;;;26.70;48.60;;;;;;5044770;28;19929;-61
2022/08/06 04:31:38;;;;;;;2.00;1.90;;;26.80;48.70;;;;;;5045119;28;20055;-61
2022/08/06 04:34:28;;;;;;;1.77;1.67;;;26.70;48.60;;;;;;5044944;28;20103;-61
2022/08/06 04:36:58;;;;;;;1.65;1.55;;;26.80;48.60;;;;;;5045442;28;20056;-62
2022/08/06 04:39:28;;;;;;;2.20;1.73;;;26.80;48.50;;;;;;5045253;28;20049;-62
2022/08/06 04:42:16;;;;;;;3.97;1.95;;;26.80;48.50;;;;;;5044679;28;20055;-61
2022/08/06 04:44:50;;;;;;;2.05;1.95;;;26.80;48.40;;;;;;5045342;28;20041;-62
2022/08/06 04:47:31;;;;;;;1.90;1.80;;;26.90;48.50;;;;;;5040092;28;20126;-62
2022/08/06 04:50:13;;;;;;;1.80;1.70;;;26.90;48.40;;;;;;5045426;28;20072;-62
2022/08/06 04:52:49;;;;;;;2.28;2.08;;;26.90;48.40;;;;;;5045166;28;20657;-62
2022/08/06 04:55:20;;;;;;;1.60;1.50;;;26.90;48.30;;;;;;5044884;28;20052;-61
2022/08/06 04:58:02;;;;;;;1.80;1.70;;;26.90;48.20;;;;;;5045370;28;20057;-61
2022/08/06 05:00:46;;;;;;;1.70;1.60;;;27.00;48.30;;;;;;5044835;28;20345;-61
2022/08/06 05:03:32;;;;;;;1.92;1.83;;;27.00;48.20;;;;;;5044581;28;20049;-61
2022/08/06 05:06:43;;;;;;;2.10;2.00;;;27.00;48.10;;;;;;5044318;28;20143;-62
2022/08/06 05:09:24;;;;;;;1.90;1.80;;;27.00;48.10;;;;;;5044992;28;20457;-61
2022/08/06 05:12:37;;;;;;;1.92;1.83;;;27.00;48.30;;;;;;5044801;28;20049;-61
2022/08/06 05:15:31;;;;;;;2.20;2.10;;;26.80;48.60;;;;;;5045061;28;20132;-62
2022/08/06 05:18:15;;;;;;;1.77;1.67;;;26.70;49.00;;;;;;5039836;28;20533;-63
2022/08/06 05:21:04;;;;;;;1.92;1.83;;;26.50;49.50;;;;;;5047939;28;20052;-62
2022/08/06 05:23:49;;;;;;;2.45;2.25;;;26.10;50.00;;;;;;5047063;28;20048;-61
2022/08/06 05:26:20;;;;;;;2.47;2.28;;;25.80;50.10;;;;;;5047753;28;20045;-61
2022/08/06 05:28:52;;;;;;;5.60;2.78;;;25.50;49.90;;;;;;5048814;28;20059;-61
2022/08/06 05:31:30;;;;;;;2.38;2.28;;;25.20;49.90;;;;;;5047531;28;20533;-61
2022/08/06 05:34:08;;;;;;;2.30;2.20;;;24.80;50.10;;;;;;5048632;28;20136;-61
2022/08/06 05:36:35;;;;;;;2.50;2.40;;;24.50;50.30;;;;;;5048205;28;20084;-63
2022/08/06 05:39:03;;;;;;;2.50;2.30;;;24.20;50.30;;;;;;5048426;28;20133;-61
2022/08/06 05:41:34;;;;;;;2.88;2.67;;;23.90;50.10;;;;;;5048127;28;20054;-61
2022/08/06 05:44:05;;;;;;;2.90;2.60;;;23.60;49.90;;;;;;5048079;28;20045;-62
2022/08/06 05:46:41;;;;;;;4.40;3.13;;;23.30;49.70;;;;;;5048750;28;20078;-62
2022/08/06 05:49:14;;;;;;;2.60;2.40;;;23.10;50.00;;;;;;5046055;28;20499;-61
2022/08/06 05:52:28;;;;;;;3.30;3.08;;;22.80;50.00;;;;;;5048216;28;20156;-62
2022/08/06 05:55:01;;;;;;;2.95;2.75;;;22.50;50.40;;;;;;5048038;28;20049;-61
2022/08/06 05:57:41;;;;;;;3.22;2.97;;;22.30;50.60;;;;;;5048453;28;20103;-61
2022/08/06 06:00:16;;;;;;;3.40;3.10;;;22.10;52.70;;;;;;5046723;28;20496;-61
2022/08/06 06:03:07;;;;;;;3.10;2.90;;;21.90;53.60;;;;;;5048053;28;20061;-61
2022/08/06 06:05:53;;;;;;;3.47;3.20;;;21.90;53.60;;;;;;5046508;28;20049;-61
2022/08/06 06:08:41;;;;;;;3.30;3.10;;;21.80;54.00;;;;;;5046745;28;20080;-61
2022/08/06 06:11:26;;;;;;;3.60;3.10;;;21.70;54.20;;;;;;5047630;28;20048;-61
2022/08/06 06:14:38;;;;;;;4.45;4.05;;;21.70;54.10;;;;;;5047416;28;20052;-61
2022/08/06 06:17:26;;;;;;;3.55;3.25;;;21.60;54.20;;;;;;5047968;28;20124;-61
2022/08/06 06:20:29;;;;;;;3.78;3.33;;;21.50;54.30;;;;;;5047224;28;20059;-61
2022/08/06 06:23:35;;;;;;;3.38;3.17;;;21.50;54.50;;;;;;5044689;28;20452;-61
2022/08/06 06:26:32;;;;;;;3.58;3.22;;;21.40;54.40;;;;;;5045866;28;20049;-61
2022/08/06 06:29:12;;;;;;;3.25;3.03;;;21.40;54.60;;;;;;5047388;28;20135;-62
2022/08/06 06:32:14;;;;;;;3.33;3.10;;;21.30;54.70;;;;;;5045825;28;20136;-61
2022/08/06 06:35:23;;;;;;;3.70;3.40;;;21.30;54.80;;;;;;5047436;28;20041;-61
2022/08/06 06:38:18;;;;;;;3.60;3.30;;;21.20;54.80;;;;;;5046333;28;20045;-61
2022/08/06 06:40:57;;;;;;;3.25;3.03;;;21.20;55.10;;;;;;5047177;28;20102;-61
2022/08/06 06:43:56;;;;;;;3.47;3.17;;;21.20;55.30;;;;;;5047141;28;20045;-61
2022/08/06 06:46:36;;;;;;;3.63;3.33;;;21.10;55.50;;;;;;5046270;28;21119;-61
2022/08/06 06:49:32;;;;;;;3.78;3.42;;;21.10;56.20;;;;;;5046663;28;20045;-61
2022/08/06 06:52:25;;;;;;;3.53;3.22;;;21.10;56.50;;;;;;5047067;28;20080;-61
2022/08/06 06:55:16;;;;;;;3.60;3.17;;;21.10;56.90;;;;;;5042651;28;20460;-61
2022/08/06 06:58:32;;;;;;;3.40;3.10;;;21.10;57.10;;;;;;5047159;28;20045;-61
2022/08/06 07:01:01;;;;;;;8.18;4.25;;;21.10;57.40;;;;;;5045702;28;20529;-60
2022/08/06 07:03:41;;;;;;;4.00;3.20;;;21.20;57.60;;;;;;5046687;28;20079;-61
2022/08/06 07:06:11;;;;;;;3.63;2.95;;;21.20;57.40;;;;;;5046927;28;20044;-61
2022/08/06 07:09:00;;;;;;;4.07;3.40;;;21.20;57.60;;;;;;5046516;28;20411;-61
2022/08/06 07:11:42;;;;;;;3.47;3.17;;;21.20;57.70;;;;;;5046723;28;20256;-60
2022/08/06 07:14:32;;;;;;;3.42;3.17;;;21.30;57.60;;;;;;5046205;28;20376;-61
2022/08/06 07:17:02;;;;;;;3.70;3.17;;;21.30;57.20;;;;;;5046945;28;20076;-61
2022/08/06 07:19:54;;;;;;;3.50;3.20;;;21.30;57.30;;;;;;5045066;28;20057;-61
2022/08/06 07:22:23;;;;;;;4.38;3.65;;;21.30;57.30;;;;;;5046585;28;20094;-61
2022/08/06 07:24:58;;;;;;;4.03;3.72;;;21.20;57.10;;;;;;5043530;28;20174;-61
2022/08/06 07:27:32;;;;;;;4.32;3.72;;;21.30;57.20;;;;;;5046677;28;20049;-61
2022/08/06 07:30:14;;;;;;;4.63;3.63;;;21.20;57.20;;;;;;5046213;28;20048;-61
2022/08/06 07:32:43;;;;;;;3.20;3.00;;;21.20;57.20;;;;;;5046178;28;20136;-61
2022/08/06 07:35:18;;;;;;;3.70;3.40;;;21.20;57.30;;;;;;5045840;28;20561;-61
2022/08/06 07:38:05;;;;;;;3.90;3.60;;;21.20;58.00;;;;;;5046594;28;20304;-61
2022/08/06 07:40:43;;;;;;;3.83;3.53;;;21.10;57.80;;;;;;5045773;28;20507;-61
2022/08/06 07:43:26;;;;;;;5.40;4.32;;;21.10;57.80;;;;;;5046154;28;20454;-61
2022/08/06 07:46:04;;;;;;;3.97;3.58;;;21.10;58.00;;;;;;5045924;28;20119;-61
2022/08/06 07:48:41;;;;;;;3.88;3.28;;;21.10;58.10;;;;;;5046437;28;20045;-61
2022/08/06 07:51:22;;;;;;;3.60;3.30;;;21.10;58.10;;;;;;5045457;28;20257;-61
2022/08/06 07:54:03;;;;;;;4.13;3.28;;;21.10;58.20;;;;;;5046263;28;20596;-61
2022/08/06 07:56:38;;;;;;;3.40;3.10;;;21.10;58.50;;;;;;5041951;28;20056;-61
2022/08/06 07:59:06;;;;;;;3.60;3.30;;;21.00;58.20;;;;;;5044426;28;20057;-61
2022/08/06 08:01:40;;;;;;;3.70;3.25;;;21.00;58.60;;;;;;5045851;28;20277;-61
2022/08/06 08:07:21;;;;;;;3.58;3.28;;;21.00;58.60;;;;;;5043653;28;20296;-61
2022/08/06 08:10:09;;;;;;;3.42;3.13;;;21.10;58.70;;;;;;5043642;28;20421;-61
2022/08/06 08:12:37;;;;;;;3.90;3.60;;;21.10;58.90;;;;;;5046167;28;20049;-61
2022/08/06 08:15:09;;;;;;;3.90;3.47;;;21.10;59.00;;;;;;5045656;28;20045;-61
2022/08/06 08:17:45;;;;;;;6.05;3.70;;;21.10;58.90;;;;;;5046049;28;20181;-61
2022/08/06 08:20:28;;;;;;;3.72;3.42;;;21.10;59.00;;;;;;5043999;28;20048;-61
2022/08/06 08:23:04;;;;;;;6.25;3.33;;;21.10;59.20;;;;;;5045432;28;20091;-61
2022/08/06 08:25:33;;;;;;;3.80;3.50;;;21.10;59.00;;;;;;5043836;28;20098;-61
2022/08/06 08:28:09;;;;;;;3.63;3.30;;;21.10;58.90;;;;;;5043501;28;20056;-62
2022/08/06 08:30:44;;;;;;;4.53;3.70;;;21.20;59.20;;;;;;5042521;28;20067;-61
2022/08/06 08:33:16;;;;;;;3.33;2.85;;;21.20;59.00;;;;;;5045745;28;20076;-61
2022/08/06 08:35:45;;;;;;;3.97;3.58;;;21.20;59.20;;;;;;5043781;28;20504;-61
2022/08/06 08:38:26;;;;;;;4.03;3.60;;;21.20;59.20;;;;;;5046058;28;20055;-63
2022/08/06 08:40:57;;;;;;;3.33;3.07;;;21.20;59.30;;;;;;5043784;28;20052;-61
2022/08/06 08:43:33;;;;;;;3.70;3.42;;;21.30;59.10;;;;;;5045196;28;20506;-63
2022/08/06 08:46:22;;;;;;;3.50;3.30;;;21.20;59.20;;;;;;5044980;28;20098;-61
2022/08/06 08:49:01;;;;;;;4.00;3.35;;;21.30;59.30;;;;;;5045426;28;20409;-61
2022/08/06 08:51:38;;;;;;;3.53;3.20;;;21.30;58.90;;;;;;5045213;28;20049;-61
2022/08/06 08:54:13;;;;;;;3.45;3.20;;;21.30;59.30;;;;;;5044890;28;20064;-61
2022/08/06 08:56:45;;;;;;;4.90;3.47;;;21.30;59.20;;;;;;5048508;28;20048;-61
2022/08/06 08:59:34;;;;;;;4.38;3.72;;;21.30;59.30;;;;;;5047120;28;20048;-61
2022/08/06 09:02:23;;;;;;;5.07;3.47;;;21.30;59.40;;;;;;5048461;28;20136;-61
2022/08/06 09:04:52;;;;;;;;;;;21.40;59.00;;;;;;5048158;28;20580;-61
2022/08/06 09:07:20;;;;;;;3.33;3.10;;;21.30;59.00;;;;;;5049225;28;19928;-61
2022/08/06 09:09:51;;;;;;;3.50;3.17;;;21.40;59.10;;;;;;5048529;28;20131;-61
2022/08/06 09:12:29;;;;;;;3.67;3.38;;;21.40;59.00;;;;;;5048971;28;20053;-61
2022/08/06 09:15:03;;;;;;;3.25;3.05;;;21.40;59.20;;;;;;5048118;28;20494;-61
2022/08/06 09:17:32;;;;;;;5.18;3.45;;;21.40;59.20;;;;;;5048665;28;20041;-61
2022/08/06 09:20:19;;;;;;;3.40;3.10;;;21.40;59.10;;;;;;5049376;28;20514;-61
2022/08/06 09:22:50;;;;;;;3.97;3.67;;;21.40;59.00;;;;;;5048807;28;20041;-60
2022/08/06 09:25:39;;;;;;;3.88;3.58;;;21.50;58.90;;;;;;5049443;28;20076;-61
2022/08/06 09:28:37;;;;;;;3.97;3.55;;;21.50;58.90;;;;;;5048108;28;20091;-61
2022/08/06 09:31:10;;;;;;;3.63;3.42;;;21.40;59.10;;;;;;5047311;28;20446;-61
2022/08/06 09:34:04;;;;;;;3.95;3.50;;;21.50;59.40;;;;;;5048182;28;20057;-61
2022/08/06 09:36:52;;;;;;;3.80;3.40;;;21.40;59.20;;;;;;5047140;28;20052;-61
2022/08/06 09:39:40;;;;;;;3.50;3.20;;;21.40;59.30;;;;;;5049128;28;20480;-61
2022/08/06 09:42:46;;;;;;;3.38;3.08;;;21.50;59.40;;;;;;5048246;28;20587;-61
2022/08/06 09:45:15;;;;;;;3.50;3.30;;;21.50;59.30;;;;;;5048670;28;20053;-61
2022/08/06 09:47:49;;;;;;;4.30;3.67;;;21.50;59.40;;;;;;5047853;28;20382;-61
2022/08/06 09:50:44;;;;;;;3.83;3.40;;;21.50;59.40;;;;;;5049051;28;20049;-61
2022/08/06 09:53:14;;;;;;;6.00;3.95;;;21.50;59.40;;;;;;5047847;28;20165;-61
2022/08/06 09:55:47;;;;;;;3.50;3.20;;;21.50;59.20;;;;;;5048048;28;20084;-61
2022/08/06 09:58:37;;;;;;;3.67;3.38;;;21.50;59.20;;;;;;5048088;28;20045;-61
2022/08/06 10:01:17;;;;;;;3.80;3.50;;;21.50;58.80;;;;;;5048014;28;20166;-61
2022/08/06 10:03:50;;;;;;;4.22;3.45;;;21.50;59.10;;;;;;5043561;28;20107;-61
2022/08/06 10:06:49;;;;;;;4.07;3.78;;;21.50;59.40;;;;;;5046279;28;20085;-61
2022/08/06 10:09:17;;;;;;;3.80;3.50;;;21.50;59.40;;;;;;5048251;28;20048;-61
2022/08/06 10:12:22;;;;;;;4.50;4.10;;;21.50;59.30;;;;;;5047946;28;20106;-61
2022/08/06 10:14:52;;;;;;;3.92;3.50;;;21.50;59.40;;;;;;5047957;28;20059;-61
2022/08/06 10:17:23;;;;;;;4.18;3.65;;;21.40;59.30;;;;;;5047481;28;20152;-61
2022/08/06 10:20:13;;;;;;;3.70;3.40;;;21.50;59.50;;;;;;5047843;28;20325;-61
2022/08/06 10:22:54;;;;;;;4.03;3.72;;;21.50;59.20;;;;;;5047200;28;20077;-61
2022/08/06 10:25:24;;;;;;;3.38;3.13;;;21.50;59.20;;;;;;5047830;28;20045;-61
2022/08/06 10:27:56;;;;;;;4.00;3.70;;;21.50;59.30;;;;;;5047793;28;20041;-61
2022/08/06 10:30:26;;;;;;;4.15;3.85;;;21.50;59.40;;;;;;5047346;28;20095;-61
2022/08/06 10:33:01;;;;;;;4.25;3.90;;;21.60;59.20;;;;;;5048157;28;20132;-61
2022/08/06 10:35:29;;;;;;;4.38;3.97;;;21.60;59.10;;;;;;5042940;28;20061;-61
2022/08/06 10:38:03;;;;;;;4.03;3.63;;;21.60;58.90;;;;;;5047386;28;20045;-61
2022/08/06 10:40:43;;;;;;;3.42;3.22;;;21.60;58.90;;;;;;5046734;28;20053;-61
2022/08/06 10:43:26;;;;;;;4.68;4.28;;;21.60;58.50;;;;;;5047304;28;20049;-61
2022/08/06 10:46:04;;;;;;;3.92;3.60;;;21.60;58.60;;;;;;5047210;28;20060;-61
2022/08/06 10:48:34;;;;;;;3.88;3.58;;;21.60;58.40;;;;;;5046771;28;20565;-61
2022/08/06 10:51:21;;;;;;;3.25;3.05;;;21.60;58.60;;;;;;5046209;28;20106;-61
2022/08/06 10:54:09;;;;;;;3.95;3.58;;;21.50;58.50;;;;;;5046602;28;20048;-61
2022/08/06 10:56:46;;;;;;;3.92;3.63;;;21.50;58.40;;;;;;5047525;28;20400;-61
2022/08/06 10:59:15;;;;;;;3.80;3.47;;;21.50;58.20;;;;;;5046421;28;20444;-61
2022/08/06 11:02:17;;;;;;;3.58;3.28;;;21.50;58.40;;;;;;5046901;28;20099;-61
2022/08/06 11:04:55;;;;;;;4.93;4.07;;;21.50;58.10;;;;;;5046490;28;20524;-61
2022/08/06 11:07:52;;;;;;;6.93;3.60;;;21.50;58.10;;;;;;5041966;28;20774;-61
2022/08/06 11:11:12;;;;;;;4.15;3.78;;;21.50;58.30;;;;;;5046639;28;20083;-61
2022/08/06 11:14:11;;;;;;;3.63;3.43;;;21.40;58.20;;;;;;5046749;28;20044;-61
2022/08/06 11:16:56;;;;;;;3.50;3.30;;;21.40;58.30;;;;;;5046249;28;20049;-61
2022/08/06 11:19:45;;;;;;;4.18;3.78;;;21.40;58.50;;;;;;5046685;28;20470;-61
2022/08/06 11:22:38;;;;;;;3.75;3.45;;;21.40;58.20;;;;;;5046103;28;20044;-61
2022/08/06 11:25:46;;;;;;;4.28;3.95;;;21.30;58.40;;;;;;5046650;28;20128;-61
2022/08/06 11:28:16;;;;;;;4.25;3.88;;;21.30;58.40;;;;;;5045109;28;20450;-61
2022/08/06 11:30:49;;;;;;;6.50;4.43;;;21.20;58.40;;;;;;5045829;28;20122;-61
2022/08/06 11:33:42;;;;;;;4.38;3.97;;;21.20;58.40;;;;;;5046364;28;20059;-61
2022/08/06 11:36:23;;;;;;;4.20;3.80;;;21.20;58.50;;;;;;5045173;28;20059;-61
2022/08/06 11:38:58;;;;;;;;;;;21.20;58.70;;;;;;5044571;28;20052;-61
2022/08/06 11:41:49;;;;;;;4.93;3.72;;;21.10;58.10;;;;;;5045272;28;20237;-61
2022/08/06 11:44:32;;;;;;;4.55;3.90;;;21.10;58.60;;;;;;5046274;28;20067;-61
2022/08/06 11:47:18;;;;;;;5.65;3.75;;;21.10;58.70;;;;;;5046085;28;20048;-61
2022/08/06 11:50:21;;;;;;;4.60;4.18;;;21.10;58.10;;;;;;5046119;28;20057;-61
2022/08/06 11:52:53;;;;;;;4.10;3.55;;;21.00;58.00;;;;;;5046181;28;20083;-61
2022/08/06 11:55:22;;;;;;;4.18;3.85;;;21.00;58.20;;;;;;5045349;28;20053;-61
2022/08/06 11:58:20;;;;;;;9.82;4.20;;;21.00;58.30;;;;;;5045082;28;20056;-61
2022/08/06 12:00:57;;;;;;;3.40;3.10;;;20.90;57.70;;;;;;5045002;28;20094;-61
2022/08/06 12:03:39;;;;;;;4.63;4.22;;;20.90;58.40;;;;;;5046302;28;20049;-61
2022/08/06 12:06:21;;;;;;;4.15;3.80;;;20.90;58.50;;;;;;5028782;28;20053;-61
2022/08/06 12:09:10;;;;;;;4.18;3.78;;;21.00;58.80;;;;;;5045706;28;20118;-61
2022/08/06 12:11:50;;;;;;;4.55;4.15;;;20.90;58.60;;;;;;5040991;28;20127;-61
2022/08/06 12:14:40;;;;;;;8.50;4.10;;;20.90;58.90;;;;;;5045914;28;20280;-61
2022/08/06 12:17:17;;;;;;;3.92;3.63;;;21.00;58.50;;;;;;5044614;28;20082;-61
2022/08/06 12:19:46;;;;;;;4.43;3.95;;;21.00;58.40;;;;;;5044721;28;20052;-61
2022/08/06 12:22:31;;;;;;;4.28;3.95;;;21.00;58.50;;;;;;5046034;28;20537;-61
2022/08/06 12:25:02;;;;;;;4.77;4.37;;;21.00;58.40;;;;;;5045495;28;20171;-61
2022/08/06 12:27:40;;;;;;;3.83;3.42;;;21.10;58.80;;;;;;5045516;28;20049;-61
2022/08/06 12:30:20;;;;;;;4.27;3.87;;;21.10;58.70;;;;;;5044163;28;20059;-61
2022/08/06 12:33:05;;;;;;;3.95;3.65;;;21.10;58.90;;;;;;5045482;28;20525;-61
2022/08/06 12:35:56;;;;;;;4.32;3.88;;;21.10;58.70;;;;;;5044752;28;20135;-61
2022/08/06 12:38:31;;;;;;;4.05;3.75;;;21.20;58.60;;;;;;5044082;28;20057;-61
2022/08/06 12:41:06;;;;;;;4.85;3.92;;;21.20;58.80;;;;;;5045419;28;20131;-61
2022/08/06 12:43:41;;;;;;;4.55;3.67;;;21.20;58.80;;;;;;5040503;28;20045;-61
2022/08/06 12:46:25;;;;;;;3.85;3.55;;;21.20;58.90;;;;;;5044212;28;20045;-60
2022/08/06 12:48:57;;;;;;;4.05;3.75;;;21.20;59.00;;;;;;5044714;28;20040;-61
2022/08/06 12:51:27;;;;;;;;;;;21.20;59.20;;;;;;5044235;28;20246;-61
2022/08/06 12:54:04;;;;;;;3.50;3.22;;;21.20;58.60;;;;;;5045618;28;19921;-61
2022/08/06 12:56:35;;;;;;;3.50;3.20;;;21.20;59.00;;;;;;5045278;28;20535;-61
2022/08/06 12:59:09;;;;;;;3.95;3.60;;;21.30;59.30;;;;;;5043850;28;20065;-61
2022/08/06 13:01:51;;;;;;;3.88;3.58;;;21.30;59.10;;;;;;5044854;28;20056;-61
2022/08/06 13:04:44;;;;;;;3.67;3.38;;;21.30;58.90;;;;;;5045410;28;20110;-62
2022/08/06 13:07:13;;;;;;;4.13;3.72;;;21.30;58.90;;;;;;5044275;28;20092;-61
2022/08/06 13:09:43;;;;;;;5.45;3.85;;;21.30;58.90;;;;;;5045224;28;20057;-61
2022/08/06 13:12:30;;;;;;;3.38;3.00;;;21.30;59.10;;;;;;5045279;28;20157;-61
2022/08/06 13:15:17;;;;;;;3.50;3.25;;;21.30;59.10;;;;;;5039522;28;20128;-61
2022/08/06 13:18:10;;;;;;;3.03;2.83;;;21.30;59.20;;;;;;5045032;28;20087;-61
2022/08/06 13:20:58;;;;;;;3.72;3.42;;;21.30;58.60;;;;;;5044517;28;20131;-61
2022/08/06 13:23:37;;;;;;;3.15;2.95;;;21.30;59.40;;;;;;5044066;28;20114;-61
2022/08/06 13:26:14;;;;;;;4.47;3.17;;;21.30;59.10;;;;;;5044362;28;20088;-61
2022/08/06 13:29:14;;;;;;;3.30;3.00;;;21.30;59.20;;;;;;5045011;28;20055;-62
2022/08/06 13:32:10;;;;;;;3.00;2.80;;;21.40;59.10;;;;;;5043957;28;20401;-61
2022/08/06 13:34:59;;;;;;;3.58;3.28;;;21.40;59.60;;;;;;5044748;28;20135;-61
2022/08/06 13:37:50;;;;;;;9.10;3.10;;;21.40;59.30;;;;;;5043502;28;20045;-61
2022/08/06 13:40:41;;;;;;;4.25;2.45;;;21.40;59.20;;;;;;5045171;28;20049;-61
2022/08/06 13:43:19;;;;;;;3.20;3.00;;;21.40;59.40;;;;;;5047639;28;20222;-61
2022/08/06 13:46:14;;;;;;;4.18;2.75;;;21.40;59.40;;;;;;5047173;28;20131;-61
2022/08/06 13:48:54;;;;;;;5.18;2.83;;;21.40;59.40;;;;;;5045941;28;20051;-62
2022/08/06 13:51:24;;;;;;;2.90;2.70;;;21.50;59.80;;;;;;5048164;28;20497;-61
2022/08/06 13:53:56;;;;;;;3.03;2.63;;;21.50;59.70;;;;;;5048699;28;20049;-62
2022/08/06 13:56:26;;;;;;;3.97;2.75;;;21.50;59.70;;;;;;5048276;28;20341;-61
2022/08/06 13:58:58;;;;;;;3.28;2.65;;;21.60;59.80;;;;;;5047032;28;20385;-61
2022/08/06 14:01:26;;;;;;;2.95;2.60;;;21.60;59.80;;;;;;5047660;28;20512;-62